(°C)
29°
29°
27°
25°
22°
20°
19°
(°C)
33°
33°
31°
28°
25°
23°
22°
GD
GD
DGD
D
D
D
D
(km/saat)
4-9
3-9
4-10
6-13
7-15
6-14
5-12
(mm)
0
0
0
0
0
0
0
(%)
17
15
14
26
26
15
15

Güneşin açısı

/ 24°
sun-icon
UV 5
05:23
21:48
Azalan ay (199°)
22:59
06:12

55.03°K 82.6°D (UNNT) için METAR

Zaman Koşullar Sıcaklık/
Çiy noktası
Rüzgar Görünürlük Hava Bulutlar Basınç Değiştir Ham
VFR 30°C / 18°C variable 2kt >10km - Scattered Clouds 4800ft 1004 No Significant change. Runway 25: Clear and dry, 51-100% contamination with <1mm, friction coefficient 0.70. Runway 34: Clear and dry, 51-100% contamination with <1mm, friction coefficient 0.70. UNNT 251100Z VRB01MPS 9999 SCT048CB 30/18 Q1004 R25/090070 R34/090070 NOSIG RMK QFE743/0991
VFR 29°C / 17°C 160º variable 080º to 210º 4kt >10km in the Vicinity Thunderstorm Vertical Visibility of 0ft. 1004 No Significant change. Runway 25: Clear and dry, 51-100% contamination with <1mm, friction coefficient 0.70. Runway 34: Clear and dry, 51-100% contamination with <1mm, friction coefficient 0.70. UNNT 251030Z 16002MPS 080V210 9999 VCTS SCT050CB 29/17 Q1004 R25/090070 R34/090070 NOSIG RMK QFE743/0991
VFR 30°C / 18°C 180º variable 130º to 230º 4kt >10km - Scattered Clouds 4600ft 1004 No Significant change. Runway 25: Clear and dry, 51-100% contamination with <1mm, friction coefficient 0.70. Runway 34: Clear and dry, 51-100% contamination with <1mm, friction coefficient 0.70. UNNT 251000Z 18002MPS 130V230 9999 SCT046CB 30/18 Q1004 R25/090070 R34/090070 NOSIG RMK QFE743/0991
VFR 30°C / 18°C 160º variable 130º to 220º 6kt >10km - Scattered Clouds 4600ft 1005 No Significant change. Runway 25: Clear and dry, 51-100% contamination with <1mm, friction coefficient 0.70. Runway 34: Clear and dry, 51-100% contamination with <1mm, friction coefficient 0.70. UNNT 250930Z 16003MPS 130V220 9999 SCT046CB 30/18 Q1005 R25/090070 R34/090070 NOSIG RMK QFE743/0991
VFR 29°C / 18°C 160º variable 120º to 250º 4kt >10km - Scattered Clouds 4200ft 1005 No Significant change. Runway 25: Clear and dry, 51-100% contamination with <1mm, friction coefficient 0.70. Runway 34: Clear and dry, 51-100% contamination with <1mm, friction coefficient 0.70. UNNT 250900Z 16002MPS 120V250 9999 SCT042CB 29/18 Q1005 R25/090070 R34/090070 NOSIG RMK QFE744/0992
VFR 29°C / 20°C 220º variable 140º to 300º 4kt >10km - Scattered Clouds 4200ft 1005 No Significant change. Runway 25: Clear and dry, 51-100% contamination with <1mm, friction coefficient 0.70. Runway 34: Clear and dry, 51-100% contamination with <1mm, friction coefficient 0.70. UNNT 250830Z 22002MPS 140V300 9999 SCT042CB 29/20 Q1005 R25/090070 R34/090070 NOSIG RMK QFE744/0992
VFR 30°C / 20°C 190º variable 150º to 240º 6kt >10km - Scattered Clouds 4600ft 1005 No Significant change. Runway 25: Clear and dry, 51-100% contamination with <1mm, friction coefficient 0.70. Runway 34: Clear and dry, 51-100% contamination with <1mm, friction coefficient 0.70. UNNT 250800Z 19003MPS 150V240 9999 SCT046CB 30/20 Q1005 R25/090070 R34/090070 NOSIG RMK QFE744/0992
VFR 29°C / 19°C 180º variable 110º to 240º 6kt >10km - Scattered Clouds 5000ft 1005 No Significant change. Runway 25: Clear and dry, 51-100% contamination with <1mm, friction coefficient 0.70. Runway 34: Clear and dry, 51-100% contamination with <1mm, friction coefficient 0.70. UNNT 250730Z 18003MPS 110V240 9999 SCT050CB 29/19 Q1005 R25/090070 R34/090070 NOSIG RMK QFE744/0992
VFR 29°C / 20°C 140º variable 070º to 230º 4kt >10km - Scattered Clouds 5000ft 1005 No Significant change. Runway 25: Clear and dry, 51-100% contamination with <1mm, friction coefficient 0.70. Runway 34: Clear and dry, 51-100% contamination with <1mm, friction coefficient 0.70. UNNT 250700Z 14002MPS 070V230 9999 SCT050CB 29/20 Q1005 R25/090070 R34/090070 NOSIG RMK QFE744/0992
VFR 28°C / 20°C variable 4kt >10km - Scattered Clouds 3700ft 1005 No Significant change. Runway 25: Clear and dry, 51-100% contamination with <1mm, friction coefficient 0.70. Runway 34: Clear and dry, 51-100% contamination with <1mm, friction coefficient 0.70. UNNT 250630Z VRB02MPS 9999 SCT037CB 28/20 Q1005 R25/090070 R34/090070 NOSIG RMK QFE744/0992
VFR 27°C / 19°C variable 2kt >10km - Scattered Clouds 3800ft 1006 No Significant change. Runway 25: Clear and dry, 51-100% contamination with <1mm, friction coefficient 0.70. Runway 34: Clear and dry, 51-100% contamination with <1mm, friction coefficient 0.70. UNNT 250600Z VRB01MPS 9999 SCT038CB 27/19 Q1006 R25/090070 R34/090070 NOSIG RMK QFE744/0993
VFR 26°C / 21°C 300º 6kt >10km - Clouds and Visibility OK 1006 No Significant change. Runway 25: Clear and dry, 51-100% contamination with <1mm, friction coefficient 0.70. Runway 34: Clear and dry, 51-100% contamination with <1mm, friction coefficient 0.70. UNNT 250530Z 30003MPS CAVOK 26/21 Q1006 R25/090070 R34/090070 NOSIG RMK QFE745/0993
VFR 27°C / 20°C variable 2kt >10km - Clouds and Visibility OK 1006 No Significant change. Runway 25: Clear and dry, 51-100% contamination with <1mm, friction coefficient 0.70. Runway 34: Clear and dry, 51-100% contamination with <1mm, friction coefficient 0.70. UNNT 250500Z VRB01MPS CAVOK 27/20 Q1006 R25/090070 R34/090070 NOSIG RMK QFE745/0993
VFR 27°C / 19°C 240º variable 160º to 310º 4kt >10km - Clouds and Visibility OK 1006 No Significant change. Runway 25: Clear and dry, 51-100% contamination with <1mm, friction coefficient 0.70. Runway 34: Clear and dry, 51-100% contamination with <1mm, friction coefficient 0.70. UNNT 250430Z 24002MPS 160V310 CAVOK 27/19 Q1006 R25/090070 R34/090070 NOSIG RMK QFE745/0993
VFR 26°C / 19°C 260º variable 220º to 330º 4kt >10km - Clouds and Visibility OK 1006 No Significant change. Runway 25: Clear and dry, 51-100% contamination with <1mm, friction coefficient 0.70. Runway 34: Clear and dry, 51-100% contamination with <1mm, friction coefficient 0.70. UNNT 250400Z 26002MPS 220V330 CAVOK 26/19 Q1006 R25/090070 R34/090070 NOSIG RMK QFE745/0993
VFR 25°C / 20°C variable 2kt >10km - Clouds and Visibility OK 1006 No Significant change. Runway 25: Clear and dry, 51-100% contamination with <1mm, friction coefficient 0.70. Runway 34: Clear and dry, 51-100% contamination with <1mm, friction coefficient 0.70. UNNT 250330Z VRB01MPS CAVOK 25/20 Q1006 R25/090070 R34/090070 NOSIG RMK QFE745/0993
VFR 24°C / 21°C variable 0kt >10km - Clouds and Visibility OK 1006 No Significant change. Runway 25: Clear and dry, 51-100% contamination with <1mm, friction coefficient 0.70. Runway 34: Clear and dry, 51-100% contamination with <1mm, friction coefficient 0.70. UNNT 250300Z 00000MPS CAVOK 24/21 Q1006 R25/090070 R34/090070 NOSIG RMK QFE745/0993
VFR 22°C / 21°C variable 0kt >10km - Clouds and Visibility OK 1007 No Significant change. Runway 25: Clear and dry, 51-100% contamination with <1mm, friction coefficient 0.70. Runway 34: Clear and dry, 51-100% contamination with <1mm, friction coefficient 0.70. UNNT 250230Z 00000MPS CAVOK 22/21 Q1007 R25/090070 R34/090070 NOSIG RMK QFE745/0993
VFR 21°C / 20°C variable 0kt >10km - Clouds and Visibility OK 1007 No Significant change. Runway 25: Clear and dry, 51-100% contamination with <1mm, friction coefficient 0.70. Runway 34: Clear and dry, 51-100% contamination with <1mm, friction coefficient 0.70. UNNT 250200Z 00000MPS CAVOK 21/20 Q1007 R25/090070 R34/090070 NOSIG RMK QFE745/0993
VFR 20°C / 20°C variable 0kt >10km - Clouds and Visibility OK 1007 No Significant change. Runway 25: Clear and dry, 51-100% contamination with <1mm, friction coefficient 0.70. Runway 34: Clear and dry, 51-100% contamination with <1mm, friction coefficient 0.70. UNNT 250130Z 00000MPS CAVOK 20/20 Q1007 R25/090070 R34/090070 NOSIG RMK QFE745/0993
VFR 19°C / 19°C 290º 2kt >10km - Clouds and Visibility OK 1007 No Significant change. Runway 25: Clear and dry, 51-100% contamination with <1mm, friction coefficient 0.70. Runway 34: Clear and dry, 51-100% contamination with <1mm, friction coefficient 0.70. UNNT 250100Z 29001MPS CAVOK 19/19 Q1007 R25/090070 R34/090070 NOSIG RMK QFE745/0993
VFR 19°C / 19°C 310º 2kt >10km - Clear 1007 No Significant change. Runway 25: Clear and dry, 51-100% contamination with <1mm, friction coefficient 0.70. Runway 34: Clear and dry, 51-100% contamination with <1mm, friction coefficient 0.70. UNNT 250030Z 31001MPS 9999 NSC 19/19 Q1007 R25/090070 R34/090070 NOSIG RMK QFE745/0993
VFR 19°C / 19°C 360º 2kt 9000m - Clear 1007 No Significant change. Runway 25: Clear and dry, 51-100% contamination with <1mm, friction coefficient 0.70. Runway 34: Clear and dry, 51-100% contamination with <1mm, friction coefficient 0.70. UNNT 250000Z 36001MPS 9000 NSC 19/19 Q1007 R25/090070 R34/090070 NOSIG RMK QFE745/0993
MVFR 18°C / 18°C 260º 4kt 8000m - Clear 1007 No Significant change. Runway 25: Clear and dry, 51-100% contamination with <1mm, friction coefficient 0.70. Runway 34: Clear and dry, 51-100% contamination with <1mm, friction coefficient 0.70. UNNT 242330Z 26002MPS 8000 NSC 18/18 Q1007 R25/090070 R34/090070 NOSIG RMK QFE745/0994

VFR

30°C / 18°C

[Daha fazla]
Rüzgar variable 2kt
Görünürlük >10km
Hava -
Bulutlar Scattered Clouds 4800ft
Basınç 1004
Değiştir No Significant change. Runway 25: Clear and dry, 51-100% contamination with <1mm, friction coefficient 0.70. Runway 34: Clear and dry, 51-100% contamination with <1mm, friction coefficient 0.70.
Ham UNNT 251100Z VRB01MPS 9999 SCT048CB 30/18 Q1004 R25/090070 R34/090070 NOSIG RMK QFE743/0991

VFR

29°C / 17°C

[Daha fazla]
Rüzgar 160º variable 080º to 210º 4kt
Görünürlük >10km
Hava in the Vicinity Thunderstorm
Bulutlar Vertical Visibility of 0ft.
Basınç 1004
Değiştir No Significant change. Runway 25: Clear and dry, 51-100% contamination with <1mm, friction coefficient 0.70. Runway 34: Clear and dry, 51-100% contamination with <1mm, friction coefficient 0.70.
Ham UNNT 251030Z 16002MPS 080V210 9999 VCTS SCT050CB 29/17 Q1004 R25/090070 R34/090070 NOSIG RMK QFE743/0991

VFR

30°C / 18°C

[Daha fazla]
Rüzgar 180º variable 130º to 230º 4kt
Görünürlük >10km
Hava -
Bulutlar Scattered Clouds 4600ft
Basınç 1004
Değiştir No Significant change. Runway 25: Clear and dry, 51-100% contamination with <1mm, friction coefficient 0.70. Runway 34: Clear and dry, 51-100% contamination with <1mm, friction coefficient 0.70.
Ham UNNT 251000Z 18002MPS 130V230 9999 SCT046CB 30/18 Q1004 R25/090070 R34/090070 NOSIG RMK QFE743/0991

VFR

30°C / 18°C

[Daha fazla]
Rüzgar 160º variable 130º to 220º 6kt
Görünürlük >10km
Hava -
Bulutlar Scattered Clouds 4600ft
Basınç 1005
Değiştir No Significant change. Runway 25: Clear and dry, 51-100% contamination with <1mm, friction coefficient 0.70. Runway 34: Clear and dry, 51-100% contamination with <1mm, friction coefficient 0.70.
Ham UNNT 250930Z 16003MPS 130V220 9999 SCT046CB 30/18 Q1005 R25/090070 R34/090070 NOSIG RMK QFE743/0991

VFR

29°C / 18°C

[Daha fazla]
Rüzgar 160º variable 120º to 250º 4kt
Görünürlük >10km
Hava -
Bulutlar Scattered Clouds 4200ft
Basınç 1005
Değiştir No Significant change. Runway 25: Clear and dry, 51-100% contamination with <1mm, friction coefficient 0.70. Runway 34: Clear and dry, 51-100% contamination with <1mm, friction coefficient 0.70.
Ham UNNT 250900Z 16002MPS 120V250 9999 SCT042CB 29/18 Q1005 R25/090070 R34/090070 NOSIG RMK QFE744/0992

VFR

29°C / 20°C

[Daha fazla]
Rüzgar 220º variable 140º to 300º 4kt
Görünürlük >10km
Hava -
Bulutlar Scattered Clouds 4200ft
Basınç 1005
Değiştir No Significant change. Runway 25: Clear and dry, 51-100% contamination with <1mm, friction coefficient 0.70. Runway 34: Clear and dry, 51-100% contamination with <1mm, friction coefficient 0.70.
Ham UNNT 250830Z 22002MPS 140V300 9999 SCT042CB 29/20 Q1005 R25/090070 R34/090070 NOSIG RMK QFE744/0992

VFR

30°C / 20°C

[Daha fazla]
Rüzgar 190º variable 150º to 240º 6kt
Görünürlük >10km
Hava -
Bulutlar Scattered Clouds 4600ft
Basınç 1005
Değiştir No Significant change. Runway 25: Clear and dry, 51-100% contamination with <1mm, friction coefficient 0.70. Runway 34: Clear and dry, 51-100% contamination with <1mm, friction coefficient 0.70.
Ham UNNT 250800Z 19003MPS 150V240 9999 SCT046CB 30/20 Q1005 R25/090070 R34/090070 NOSIG RMK QFE744/0992

VFR

29°C / 19°C

[Daha fazla]
Rüzgar 180º variable 110º to 240º 6kt
Görünürlük >10km
Hava -
Bulutlar Scattered Clouds 5000ft
Basınç 1005
Değiştir No Significant change. Runway 25: Clear and dry, 51-100% contamination with <1mm, friction coefficient 0.70. Runway 34: Clear and dry, 51-100% contamination with <1mm, friction coefficient 0.70.
Ham UNNT 250730Z 18003MPS 110V240 9999 SCT050CB 29/19 Q1005 R25/090070 R34/090070 NOSIG RMK QFE744/0992

VFR

29°C / 20°C

[Daha fazla]
Rüzgar 140º variable 070º to 230º 4kt
Görünürlük >10km
Hava -
Bulutlar Scattered Clouds 5000ft
Basınç 1005
Değiştir No Significant change. Runway 25: Clear and dry, 51-100% contamination with <1mm, friction coefficient 0.70. Runway 34: Clear and dry, 51-100% contamination with <1mm, friction coefficient 0.70.
Ham UNNT 250700Z 14002MPS 070V230 9999 SCT050CB 29/20 Q1005 R25/090070 R34/090070 NOSIG RMK QFE744/0992

VFR

28°C / 20°C

[Daha fazla]
Rüzgar variable 4kt
Görünürlük >10km
Hava -
Bulutlar Scattered Clouds 3700ft
Basınç 1005
Değiştir No Significant change. Runway 25: Clear and dry, 51-100% contamination with <1mm, friction coefficient 0.70. Runway 34: Clear and dry, 51-100% contamination with <1mm, friction coefficient 0.70.
Ham UNNT 250630Z VRB02MPS 9999 SCT037CB 28/20 Q1005 R25/090070 R34/090070 NOSIG RMK QFE744/0992

VFR

27°C / 19°C

[Daha fazla]
Rüzgar variable 2kt
Görünürlük >10km
Hava -
Bulutlar Scattered Clouds 3800ft
Basınç 1006
Değiştir No Significant change. Runway 25: Clear and dry, 51-100% contamination with <1mm, friction coefficient 0.70. Runway 34: Clear and dry, 51-100% contamination with <1mm, friction coefficient 0.70.
Ham UNNT 250600Z VRB01MPS 9999 SCT038CB 27/19 Q1006 R25/090070 R34/090070 NOSIG RMK QFE744/0993

VFR

26°C / 21°C

[Daha fazla]
Rüzgar 300º 6kt
Görünürlük >10km
Hava -
Bulutlar Clouds and Visibility OK
Basınç 1006
Değiştir No Significant change. Runway 25: Clear and dry, 51-100% contamination with <1mm, friction coefficient 0.70. Runway 34: Clear and dry, 51-100% contamination with <1mm, friction coefficient 0.70.
Ham UNNT 250530Z 30003MPS CAVOK 26/21 Q1006 R25/090070 R34/090070 NOSIG RMK QFE745/0993

VFR

27°C / 20°C

[Daha fazla]
Rüzgar variable 2kt
Görünürlük >10km
Hava -
Bulutlar Clouds and Visibility OK
Basınç 1006
Değiştir No Significant change. Runway 25: Clear and dry, 51-100% contamination with <1mm, friction coefficient 0.70. Runway 34: Clear and dry, 51-100% contamination with <1mm, friction coefficient 0.70.
Ham UNNT 250500Z VRB01MPS CAVOK 27/20 Q1006 R25/090070 R34/090070 NOSIG RMK QFE745/0993

VFR

27°C / 19°C

[Daha fazla]
Rüzgar 240º variable 160º to 310º 4kt
Görünürlük >10km
Hava -
Bulutlar Clouds and Visibility OK
Basınç 1006
Değiştir No Significant change. Runway 25: Clear and dry, 51-100% contamination with <1mm, friction coefficient 0.70. Runway 34: Clear and dry, 51-100% contamination with <1mm, friction coefficient 0.70.
Ham UNNT 250430Z 24002MPS 160V310 CAVOK 27/19 Q1006 R25/090070 R34/090070 NOSIG RMK QFE745/0993

VFR

26°C / 19°C

[Daha fazla]
Rüzgar 260º variable 220º to 330º 4kt
Görünürlük >10km
Hava -
Bulutlar Clouds and Visibility OK
Basınç 1006
Değiştir No Significant change. Runway 25: Clear and dry, 51-100% contamination with <1mm, friction coefficient 0.70. Runway 34: Clear and dry, 51-100% contamination with <1mm, friction coefficient 0.70.
Ham UNNT 250400Z 26002MPS 220V330 CAVOK 26/19 Q1006 R25/090070 R34/090070 NOSIG RMK QFE745/0993

VFR

25°C / 20°C

[Daha fazla]
Rüzgar variable 2kt
Görünürlük >10km
Hava -
Bulutlar Clouds and Visibility OK
Basınç 1006
Değiştir No Significant change. Runway 25: Clear and dry, 51-100% contamination with <1mm, friction coefficient 0.70. Runway 34: Clear and dry, 51-100% contamination with <1mm, friction coefficient 0.70.
Ham UNNT 250330Z VRB01MPS CAVOK 25/20 Q1006 R25/090070 R34/090070 NOSIG RMK QFE745/0993

VFR

24°C / 21°C

[Daha fazla]
Rüzgar variable 0kt
Görünürlük >10km
Hava -
Bulutlar Clouds and Visibility OK
Basınç 1006
Değiştir No Significant change. Runway 25: Clear and dry, 51-100% contamination with <1mm, friction coefficient 0.70. Runway 34: Clear and dry, 51-100% contamination with <1mm, friction coefficient 0.70.
Ham UNNT 250300Z 00000MPS CAVOK 24/21 Q1006 R25/090070 R34/090070 NOSIG RMK QFE745/0993

VFR

22°C / 21°C

[Daha fazla]
Rüzgar variable 0kt
Görünürlük >10km
Hava -
Bulutlar Clouds and Visibility OK
Basınç 1007
Değiştir No Significant change. Runway 25: Clear and dry, 51-100% contamination with <1mm, friction coefficient 0.70. Runway 34: Clear and dry, 51-100% contamination with <1mm, friction coefficient 0.70.
Ham UNNT 250230Z 00000MPS CAVOK 22/21 Q1007 R25/090070 R34/090070 NOSIG RMK QFE745/0993

VFR

21°C / 20°C

[Daha fazla]
Rüzgar variable 0kt
Görünürlük >10km
Hava -
Bulutlar Clouds and Visibility OK
Basınç 1007
Değiştir No Significant change. Runway 25: Clear and dry, 51-100% contamination with <1mm, friction coefficient 0.70. Runway 34: Clear and dry, 51-100% contamination with <1mm, friction coefficient 0.70.
Ham UNNT 250200Z 00000MPS CAVOK 21/20 Q1007 R25/090070 R34/090070 NOSIG RMK QFE745/0993

VFR

20°C / 20°C

[Daha fazla]
Rüzgar variable 0kt
Görünürlük >10km
Hava -
Bulutlar Clouds and Visibility OK
Basınç 1007
Değiştir No Significant change. Runway 25: Clear and dry, 51-100% contamination with <1mm, friction coefficient 0.70. Runway 34: Clear and dry, 51-100% contamination with <1mm, friction coefficient 0.70.
Ham UNNT 250130Z 00000MPS CAVOK 20/20 Q1007 R25/090070 R34/090070 NOSIG RMK QFE745/0993

VFR

19°C / 19°C

[Daha fazla]
Rüzgar 290º 2kt
Görünürlük >10km
Hava -
Bulutlar Clouds and Visibility OK
Basınç 1007
Değiştir No Significant change. Runway 25: Clear and dry, 51-100% contamination with <1mm, friction coefficient 0.70. Runway 34: Clear and dry, 51-100% contamination with <1mm, friction coefficient 0.70.
Ham UNNT 250100Z 29001MPS CAVOK 19/19 Q1007 R25/090070 R34/090070 NOSIG RMK QFE745/0993

VFR

19°C / 19°C

[Daha fazla]
Rüzgar 310º 2kt
Görünürlük >10km
Hava -
Bulutlar Clear
Basınç 1007
Değiştir No Significant change. Runway 25: Clear and dry, 51-100% contamination with <1mm, friction coefficient 0.70. Runway 34: Clear and dry, 51-100% contamination with <1mm, friction coefficient 0.70.
Ham UNNT 250030Z 31001MPS 9999 NSC 19/19 Q1007 R25/090070 R34/090070 NOSIG RMK QFE745/0993

VFR

19°C / 19°C

[Daha fazla]
Rüzgar 360º 2kt
Görünürlük 9000m
Hava -
Bulutlar Clear
Basınç 1007
Değiştir No Significant change. Runway 25: Clear and dry, 51-100% contamination with <1mm, friction coefficient 0.70. Runway 34: Clear and dry, 51-100% contamination with <1mm, friction coefficient 0.70.
Ham UNNT 250000Z 36001MPS 9000 NSC 19/19 Q1007 R25/090070 R34/090070 NOSIG RMK QFE745/0993

MVFR

18°C / 18°C

[Daha fazla]
Rüzgar 260º 4kt
Görünürlük 8000m
Hava -
Bulutlar Clear
Basınç 1007
Değiştir No Significant change. Runway 25: Clear and dry, 51-100% contamination with <1mm, friction coefficient 0.70. Runway 34: Clear and dry, 51-100% contamination with <1mm, friction coefficient 0.70.
Ham UNNT 242330Z 26002MPS 8000 NSC 18/18 Q1007 R25/090070 R34/090070 NOSIG RMK QFE745/0994

55.03°K 82.6°D (UNNT) için TAF

From till


From till Wind 170º 6kt. Gust 16kt. Visibility 8000m. Broken Clouds 4000ft.
Temporarly from till Visibility 305.775m. Light Thunderstorm Rain Smoke Fog . Scattered Clouds 200ft. Broken Clouds 4000ft.
From till Wind 240º 6kt. Gust 16kt. Visibility 10km or more. Light Showers Rain . Broken Clouds 3300ft.
Temporarly from till Wind 290º 12kt. Gust 25kt. Light Thunderstorm Rain . Broken Clouds 1600ft.

Ham: TAF UNNT 251100Z 2512/2612 17003G08MPS 8000 BKN040CB TEMPO 2512/2524 0300 -TSRA FU FG SCT002 BKN040CB FM260000 24003G08MPS 9999 -SHRA BKN033CB TEMPO 2600/2612 29006G13MPS -TSRA BKN016CB

55.03°K 82.6°D için şu anki uydu ve yağmur görüntüleri

Konum işaretleyici 55.03°K 82.6°D üzerine yerleştirilir. [Daha fazla]

Gerçek zamanlı uydu görüntüsü gündüz süresince görülür ışığı gece süresince kızılötesi ışınım ile birleştirir. Gece kızılötesi ışınım sıcaklık farklarını algılayabildiğinden dolayı görüntü karanlık değildir. Ancak düşük bulutları ve sisi yer sıcaklığından ayırmak zordur ve bu nedenle gece boyunca neredeyse görünmez olabilirler. Avrupa için Meteosat uydu görüntüleri gerçek zamanlı olarak her 5 dakikada bir güncellenir. GOES-16/GOES-17 (Kuzey ve Güney Amerika) ve Himawari (Asya) görüntüleri her 10 dakikada bir güncellenir.

Copyright 2021 EUMETSAT / meteoblue. / Copyright 2021 meteoblue

55.03°K 82.6°D için radar ve yağış nowcast

çiseleyen yağmur
Hafif
Orta
Ağır
Çok ağır
Selamlamak

Konum işaretleyicisi 55.03°K 82.6°D üzerine yerleştirilir. Bu animasyon son saat içerisindeki yağış radarını ve 1h tahminini gösterir. Hafif yağmur veya kar yağışı radar için görünmez olabilir. Yağış şiddeti açık mavi ile koyu mor arasındaki renklerle kodlanmıştır.